Time;durP1;ratioP1;P1;durP2;ratioP2;P2;SDS_P1;SDS_P2;PMS_P1;PMS_P2;Temp;Humidity;BMP_temperature;BMP_pressure;BME280_temperature;BME280_humidity;BME280_pressure;Samples;Min_cycle;Max_cycle;Signal;HPM_P1;HPM_P2
2021/05/18 00:01:14;;;;;;;3.20;2.87;;;11.80;99.90;;;;;;5063697;28;20492;-88
2021/05/18 00:03:40;;;;;;;3.60;3.00;;;11.80;99.90;;;;;;5062953;28;20947;-85
2021/05/18 00:06:08;;;;;;;3.00;2.50;;;11.90;99.90;;;;;;5063437;28;20445;-85
2021/05/18 00:11:42;;;;;;;3.70;3.10;;;11.80;99.90;;;;;;5063025;28;20453;-86
2021/05/18 00:14:06;;;;;;;3.10;2.80;;;11.70;99.90;;;;;;5061989;28;20433;-86
2021/05/18 00:16:32;;;;;;;2.17;2.00;;;11.80;99.90;;;;;;5063012;28;20454;-86
2021/05/18 00:18:59;;;;;;;2.70;2.50;;;;;;;;;;5062784;28;20450;-86
2021/05/18 00:21:25;;;;;;;2.90;2.70;;;11.70;99.90;;;;;;5062640;28;20434;-86
2021/05/18 00:23:52;;;;;;;2.80;2.60;;;11.70;99.90;;;;;;5061496;28;20442;-85
2021/05/18 00:26:18;;;;;;;2.20;2.10;;;11.90;99.90;;;;;;5062453;28;20749;-85
2021/05/18 00:28:45;;;;;;;3.00;2.80;;;11.60;99.90;;;;;;5061413;28;20445;-85
2021/05/18 00:31:11;;;;;;;9.33;2.80;;;11.50;99.90;;;;;;5064862;28;20845;-85
2021/05/18 00:33:38;;;;;;;3.07;2.47;;;11.60;99.90;;;;;;5061723;28;20428;-85
2021/05/18 00:36:05;;;;;;;2.83;2.30;;;11.60;99.90;;;;;;5061052;28;20445;-85
2021/05/18 00:38:31;;;;;;;2.40;2.20;;;11.50;99.90;;;;;;5061685;28;20503;-85
2021/05/18 00:40:58;;;;;;;3.03;2.30;;;11.50;99.90;;;;;;5063584;28;20484;-84
2021/05/18 00:43:24;;;;;;;2.13;1.90;;;11.50;99.90;;;;;;5077770;28;20491;-84
2021/05/18 00:45:51;;;;;;;4.37;2.23;;;11.40;99.90;;;;;;5072226;28;20438;-85
2021/05/18 00:48:19;;;;;;;2.57;2.37;;;11.60;99.90;;;;;;5071943;28;20452;-85
2021/05/18 00:50:48;;;;;;;3.77;2.50;;;11.40;99.90;;;;;;5063937;28;20940;-85
2021/05/18 00:53:15;;;;;;;2.60;2.20;;;11.30;99.90;;;;;;5062597;28;20812;-86
2021/05/18 00:55:43;;;;;;;2.40;2.20;;;11.30;99.90;;;;;;5062340;28;20449;-86
2021/05/18 00:58:29;;;;;;;2.70;2.47;;;11.20;99.90;;;;;;5062388;28;20468;-85
2021/05/18 01:01:01;;;;;;;2.70;2.50;;;11.20;99.90;;;;;;5061683;28;20956;-86
2021/05/18 01:03:28;;;;;;;2.80;2.60;;;11.10;99.90;;;;;;5061866;28;20438;-86
2021/05/18 01:08:39;;;;;;;2.50;2.30;;;11.00;99.90;;;;;;5060838;28;20409;-85
2021/05/18 01:11:06;;;;;;;3.60;1.90;;;10.90;99.90;;;;;;5059611;28;21059;-85
2021/05/18 01:13:34;;;;;;;2.17;2.07;;;10.80;99.90;;;;;;5061020;28;20469;-85
2021/05/18 01:16:02;;;;;;;2.90;2.80;;;10.90;99.90;;;;;;5063444;28;20429;-85
2021/05/18 01:18:28;;;;;;;2.43;2.33;;;10.90;99.90;;;;;;5061401;28;20549;-85
2021/05/18 01:20:56;;;;;;;2.83;2.63;;;10.90;99.90;;;;;;5061809;28;20481;-85
2021/05/18 01:23:23;;;;;;;2.87;2.40;;;10.80;99.90;;;;;;5061559;28;20454;-85
2021/05/18 01:25:49;;;;;;;2.63;2.47;;;10.80;99.90;;;;;;5061472;28;20478;-85
2021/05/18 01:28:15;;;;;;;2.97;2.43;;;10.80;99.90;;;;;;5065448;28;20437;-85
2021/05/18 01:30:42;;;;;;;2.33;2.23;;;10.70;99.90;;;;;;5073851;28;20477;-84
2021/05/18 01:33:08;;;;;;;2.60;2.40;;;10.70;99.90;;;;;;5075570;28;20434;-84
2021/05/18 01:35:34;;;;;;;2.10;2.00;;;10.70;99.90;;;;;;5071755;28;20442;-85
2021/05/18 01:38:05;;;;;;;3.10;2.80;;;10.70;99.90;;;;;;5064194;28;20958;-84
2021/05/18 01:43:16;;;;;;;2.57;2.47;;;;;;;;;;5066868;28;20429;-85
2021/05/18 01:45:44;;;;;;;2.50;2.33;;;10.80;99.90;;;;;;5066026;28;20445;-85
2021/05/18 01:48:14;;;;;;;2.60;2.40;;;10.70;99.90;;;;;;5066625;28;20453;-85
2021/05/18 01:50:44;;;;;;;2.60;2.40;;;10.70;99.90;;;;;;5065826;28;20493;-85
2021/05/18 01:53:12;;;;;;;2.67;2.47;;;10.50;99.90;;;;;;5066068;28;20445;-85
2021/05/18 01:55:41;;;;;;;2.70;2.50;;;10.60;99.90;;;;;;5065952;28;20830;-85
2021/05/18 01:58:07;;;;;;;2.60;2.40;;;10.50;99.90;;;;;;5066108;28;20442;-85
2021/05/18 02:00:38;;;;;;;2.63;2.43;;;10.50;99.90;;;;;;5065746;28;20507;-85
2021/05/18 02:03:04;;;;;;;3.20;3.00;;;10.40;99.90;;;;;;5065244;28;20449;-85
2021/05/18 02:05:34;;;;;;;3.10;2.90;;;10.40;99.90;;;;;;5064991;28;20453;-85
2021/05/18 02:08:02;;;;;;;3.40;2.73;;;10.40;99.90;;;;;;5066351;28;20762;-85
2021/05/18 02:10:29;;;;;;;4.20;2.40;;;10.40;99.90;;;;;;5065833;28;20485;-85
2021/05/18 02:12:55;;;;;;;2.83;2.63;;;10.40;99.90;;;;;;5068724;28;20512;-84
2021/05/18 02:15:33;;;;;;;2.90;2.70;;;10.40;99.90;;;;;;5069939;28;20513;-85
2021/05/18 02:18:14;;;;;;;3.73;2.20;;;10.40;99.90;;;;;;5070560;28;20528;-84
2021/05/18 02:20:44;;;;;;;2.80;2.60;;;10.40;99.90;;;;;;5070614;28;20465;-85
2021/05/18 02:25:52;;;;;;;3.20;2.90;;;10.50;99.90;;;;;;5040646;28;20436;-84
2021/05/18 02:28:18;;;;;;;5.63;2.60;;;10.30;99.90;;;;;;5071971;28;20438;-85
2021/05/18 02:30:48;;;;;;;3.60;3.30;;;10.40;99.90;;;;;;5063732;28;20542;-85
2021/05/18 02:33:14;;;;;;;3.77;2.73;;;10.40;99.90;;;;;;5063350;28;20480;-84
2021/05/18 02:35:40;;;;;;;3.00;2.80;;;10.30;99.90;;;;;;5063508;28;20420;-84
2021/05/18 02:38:07;;;;;;;2.67;2.47;;;;;;;;;;5062853;28;20445;-87
2021/05/18 02:40:36;;;;;;;2.80;2.60;;;10.30;99.90;;;;;;5064542;28;20465;-85
2021/05/18 02:43:03;;;;;;;2.70;2.50;;;10.30;99.90;;;;;;5063455;28;20457;-85
2021/05/18 02:45:33;;;;;;;2.67;2.47;;;10.30;99.90;;;;;;5064611;28;20468;-85
2021/05/18 02:50:44;;;;;;;4.77;2.80;;;10.20;99.90;;;;;;5071107;28;20481;-85
2021/05/18 02:53:10;;;;;;;5.67;2.50;;;10.30;99.90;;;;;;5065726;28;20916;-85
2021/05/18 02:55:43;;;;;;;2.20;2.10;;;10.30;99.90;;;;;;5063874;28;20428;-85
2021/05/18 02:58:12;;;;;;;3.03;2.67;;;10.20;99.90;;;;;;5064299;28;20920;-84
2021/05/18 03:00:38;;;;;;;2.60;2.47;;;10.20;99.90;;;;;;5063877;28;20493;-84
2021/05/18 03:03:04;;;;;;;2.90;2.70;;;10.20;99.90;;;;;;5063665;28;20794;-84
2021/05/18 03:05:31;;;;;;;2.67;2.47;;;;;;;;;;5064459;28;20420;-84
2021/05/18 03:07:57;;;;;;;2.80;2.50;;;10.20;99.90;;;;;;5063263;28;20426;-84
2021/05/18 03:10:23;;;;;;;3.40;3.10;;;10.10;99.90;;;;;;5064159;28;20570;-85
2021/05/18 03:12:50;;;;;;;3.20;2.90;;;10.10;99.90;;;;;;5063935;28;20797;-85
2021/05/18 03:15:17;;;;;;;3.40;2.83;;;10.10;99.90;;;;;;5066653;28;20544;-85
2021/05/18 03:17:43;;;;;;;2.40;2.20;;;10.20;99.90;;;;;;5063825;28;20431;-86
2021/05/18 03:20:13;;;;;;;2.33;2.20;;;10.20;99.90;;;;;;5062081;28;20560;-86
2021/05/18 03:22:40;;;;;;;3.63;2.70;;;10.10;99.90;;;;;;5063221;28;20482;-86
2021/05/18 03:25:07;;;;;;;3.00;2.73;;;10.10;99.90;;;;;;5062540;28;20441;-84
2021/05/18 03:27:33;;;;;;;3.17;2.90;;;10.10;99.90;;;;;;5063120;28;20448;-86
2021/05/18 03:30:11;;;;;;;2.57;2.37;;;10.20;99.90;;;;;;5063228;28;20476;-86
2021/05/18 03:35:23;;;;;;;3.23;2.47;;;10.20;99.90;;;;;;5064249;28;20387;-86
2021/05/18 03:37:52;;;;;;;2.57;2.37;;;10.20;99.90;;;;;;5066350;28;20458;-86
2021/05/18 03:40:19;;;;;;;2.43;2.23;;;10.10;99.90;;;;;;5069089;28;20450;-86
2021/05/18 03:42:48;;;;;;;3.20;3.00;;;10.20;99.90;;;;;;5067463;28;20457;-84
2021/05/18 03:45:17;;;;;;;3.27;2.80;;;10.20;99.90;;;;;;5065404;28;20548;-84
2021/05/18 03:53:39;;;;;;;2.37;2.17;;;10.80;99.90;;;;;;5062882;28;20383;-85
2021/05/18 03:59:04;;;;;;;2.70;2.50;;;10.40;99.90;;;;;;5062249;28;20535;-84
2021/05/18 04:04:18;;;;;;;2.60;2.20;;;10.60;99.90;;;;;;5061930;28;20445;-85
2021/05/18 04:12:41;;;;;;;2.00;1.90;;;10.60;99.90;;;;;;5001154;28;20410;-85
2021/05/18 04:18:09;;;;;;;2.63;2.43;;;10.70;99.90;;;;;;5062175;28;20187;-85
2021/05/18 04:20:44;;;;;;;5.13;3.57;;;10.80;99.90;;;;;;5061802;28;20476;-84
2021/05/18 04:23:19;;;;;;;4.83;2.47;;;10.80;99.90;;;;;;5064841;28;20507;-85
2021/05/18 04:26:02;;;;;;;2.60;2.43;;;10.90;99.90;;;;;;5064295;28;20468;-85
2021/05/18 04:48:33;;;;;;;3.10;2.80;;;11.30;99.90;;;;;;5001570;28;20412;-85
2021/05/18 04:51:16;;;;;;;3.50;2.40;;;11.20;99.90;;;;;;5048134;28;20459;-85
2021/05/18 04:54:04;;;;;;;2.50;2.33;;;11.40;99.90;;;;;;5062694;28;20453;-86
2021/05/18 04:59:27;;;;;;;3.03;2.37;;;11.50;99.90;;;;;;5028605;28;20488;-84
2021/05/18 05:02:07;;;;;;;3.17;2.67;;;;;;;;;;5062942;28;20446;-85
2021/05/18 05:07:17;;;;;;;3.97;3.57;;;11.60;99.90;;;;;;5056830;28;20443;-83
2021/05/18 05:09:46;;;;;;;4.40;3.37;;;11.60;99.90;;;;;;5061787;28;20445;-83
2021/05/18 05:12:40;;;;;;;4.50;3.30;;;11.60;99.90;;;;;;5072644;28;20472;-85
2021/05/18 05:15:07;;;;;;;3.60;3.30;;;11.60;99.90;;;;;;5068673;28;20408;-84
2021/05/18 05:17:33;;;;;;;2.97;2.77;;;11.60;99.90;;;;;;5063142;28;20484;-85
2021/05/18 05:19:59;;;;;;;4.70;3.83;;;11.60;99.90;;;;;;5103096;22;21189;-84
2021/05/18 05:22:26;;;;;;;4.80;4.17;;;11.60;99.90;;;;;;5097851;28;20413;-84
2021/05/18 05:24:52;;;;;;;3.90;3.43;;;11.70;99.90;;;;;;5097904;28;20428;-84
2021/05/18 05:27:19;;;;;;;11.93;8.47;;;11.70;99.90;;;;;;5095050;28;20460;-84
2021/05/18 05:29:45;;;;;;;7.33;5.27;;;11.40;99.90;;;;;;5091998;28;20433;-84
2021/05/18 05:32:11;;;;;;;6.00;4.60;;;11.60;99.90;;;;;;5081964;28;20534;-83
2021/05/18 05:34:37;;;;;;;8.30;4.93;;;11.80;99.90;;;;;;5086366;28;20472;-84
2021/05/18 05:37:03;;;;;;;4.80;4.37;;;12.20;99.90;;;;;;5096404;28;20415;-84
2021/05/18 05:39:29;;;;;;;4.60;4.17;;;11.80;99.90;;;;;;5096604;28;20460;-85
2021/05/18 05:41:56;;;;;;;6.60;5.43;;;11.80;99.90;;;;;;5096083;28;20459;-84
2021/05/18 05:44:23;;;;;;;4.37;3.97;;;11.80;99.90;;;;;;5093809;28;20463;-84
2021/05/18 05:46:49;;;;;;;4.63;4.23;;;11.90;99.90;;;;;;5095396;28;20505;-84
2021/05/18 05:49:16;;;;;;;6.57;4.20;;;11.90;99.90;;;;;;5097156;28;20404;-83
2021/05/18 05:51:42;;;;;;;5.13;4.27;;;12.10;99.90;;;;;;5097217;28;20495;-84
2021/05/18 05:54:09;;;;;;;5.60;4.53;;;12.60;99.90;;;;;;5096106;28;20449;-84
2021/05/18 05:56:36;;;;;;;4.80;4.40;;;;;;;;;;5097141;28;20441;-84
2021/05/18 05:59:06;;;;;;;5.33;4.83;;;12.10;99.90;;;;;;5097009;28;20391;-85
2021/05/18 06:01:34;;;;;;;5.50;4.93;;;;;;;;;;5085802;28;20468;-86
2021/05/18 06:04:01;;;;;;;5.90;5.40;;;;;;;;;;5082150;28;20491;-86
2021/05/18 06:06:30;;;;;;;6.23;5.30;;;;;;;;;;5082706;28;20535;-85
2021/05/18 06:08:56;;;;;;;6.27;5.60;;;12.20;99.90;;;;;;5086565;28;20490;-84
2021/05/18 06:11:27;;;;;;;5.87;5.27;;;12.60;99.90;;;;;;5080207;28;20479;-83
2021/05/18 06:14:07;;;;;;;6.83;5.63;;;12.70;99.90;;;;;;5081708;28;20531;-86
2021/05/18 06:42:14;;;;;;;8.50;7.57;;;;;;;;;;5072880;28;20508;-89
2021/05/18 06:47:32;;;;;;;10.10;8.37;;;;;;;;;;5067825;28;20365;-87
2021/05/18 06:50:09;;;;;;;10.57;8.70;;;;;;;;;;5067175;28;20442;-89
2021/05/18 06:52:38;;;;;;;11.73;9.00;;;;;;;;;;5064178;28;20493;-89
2021/05/18 06:55:09;;;;;;;9.93;8.90;;;;;;;;;;5063039;28;20494;-88
2021/05/18 06:57:40;;;;;;;11.30;9.50;;;;;;;;;;5071581;28;20433;-88
2021/05/18 07:00:08;;;;;;;13.93;9.57;;;;;;;;;;5073773;28;20418;-87
2021/05/18 07:02:35;;;;;;;11.57;10.00;;;12.70;99.90;;;;;;5062422;28;20463;-88
2021/05/18 07:05:02;;;;;;;11.47;10.17;;;12.80;99.90;;;;;;5063634;28;20488;-88
2021/05/18 07:07:32;;;;;;;11.97;10.30;;;12.80;99.90;;;;;;5060506;28;20449;-88
2021/05/18 07:10:00;;;;;;;10.30;9.30;;;12.80;99.90;;;;;;5059161;28;20544;-88
2021/05/18 07:12:26;;;;;;;11.50;10.30;;;12.90;99.90;;;;;;5056675;28;20469;-88
2021/05/18 07:14:52;;;;;;;10.00;8.93;;;;;;;;;;5056569;28;20495;-88
2021/05/18 07:17:19;;;;;;;12.30;10.17;;;;;;;;;;5058403;28;20821;-89
2021/05/18 07:19:45;;;;;;;10.20;8.87;;;;;;;;;;5057813;28;20478;-89
2021/05/18 07:22:12;;;;;;;11.53;9.90;;;13.10;99.90;;;;;;5056055;28;20473;-87
2021/05/18 07:24:38;;;;;;;8.77;7.57;;;13.20;99.90;;;;;;5062887;28;20441;-89
2021/05/18 07:27:06;;;;;;;8.90;7.57;;;12.40;99.90;;;;;;5056961;28;20453;-89
2021/05/18 07:29:43;;;;;;;9.50;8.37;;;13.30;99.90;;;;;;5051630;28;20504;-89
2021/05/18 07:32:10;;;;;;;11.90;8.30;;;;;;;;;;5042730;28;20505;-89
2021/05/18 07:34:36;;;;;;;9.90;8.90;;;13.10;99.90;;;;;;5041802;28;20473;-89
2021/05/18 07:37:02;;;;;;;8.93;8.00;;;13.40;99.90;;;;;;5042433;28;20500;-88
2021/05/18 07:39:28;;;;;;;9.50;7.60;;;13.00;99.90;;;;;;5046556;28;20478;-89
2021/05/18 07:41:55;;;;;;;10.30;9.20;;;13.30;99.90;;;;;;5050203;28;20467;-89
2021/05/18 07:44:22;;;;;;;10.13;7.70;;;13.50;99.90;;;;;;5046014;28;20442;-89
2021/05/18 07:46:48;;;;;;;10.40;8.70;;;13.20;99.90;;;;;;5044807;28;20449;-76
2021/05/18 08:00:31;;;;;;;9.70;7.90;;;13.40;99.90;;;;;;5013168;28;20504;-76
2021/05/18 08:05:43;;;;;;;9.40;8.43;;;13.30;99.90;;;;;;5035608;28;20964;-76
2021/05/18 08:08:09;;;;;;;8.53;7.70;;;13.20;99.90;;;;;;5035404;28;20461;-76
2021/05/18 08:10:45;;;;;;;8.53;5.70;;;13.20;99.90;;;;;;5035140;28;20450;-75
2021/05/18 08:13:11;;;;;;;9.87;5.20;;;13.20;99.90;;;;;;5034711;28;20608;-75
2021/05/18 08:15:52;;;;;;;3.83;3.47;;;13.10;99.90;;;;;;5035074;28;20470;-75
2021/05/18 08:18:32;;;;;;;5.03;4.03;;;13.10;99.90;;;;;;5034779;28;20473;-75
2021/05/18 08:21:23;;;;;;;4.50;4.10;;;13.20;99.90;;;;;;5034895;28;20431;-76
2021/05/18 09:29:53;;;;;;;16.50;12.43;;;13.40;99.90;;;;;;5057801;28;20430;-89
2021/05/18 10:36:31;;;;;;;3.13;2.90;;;14.00;99.90;;;;;;5120550;28;20398;-89
2021/05/18 10:39:22;;;;;;;3.47;2.50;;;13.70;99.90;;;;;;5119949;28;20422;-89
2021/05/18 10:41:50;;;;;;;3.77;2.50;;;13.90;99.90;;;;;;5118756;28;20467;-88
2021/05/18 10:44:17;;;;;;;2.57;2.37;;;13.90;99.90;;;;;;5120327;28;20471;-88
2021/05/18 10:46:50;;;;;;;2.00;1.90;;;10.60;99.90;;;;;;5121300;28;20431;-88
2021/05/18 10:49:30;;;;;;;3.20;2.77;;;13.70;99.90;;;;;;5123279;28;20451;-88
2021/05/18 10:51:59;;;;;;;3.93;2.50;;;13.80;99.90;;;;;;5121550;28;20485;-89
2021/05/18 10:54:36;;;;;;;2.23;2.10;;;13.90;99.90;;;;;;5118127;28;20443;-88
2021/05/18 10:57:17;;;;;;;2.27;2.07;;;14.20;99.90;;;;;;5119216;28;20499;-89
2021/05/18 11:00:02;;;;;;;3.00;2.80;;;14.60;99.90;;;;;;5119153;28;20447;-89
2021/05/18 11:02:32;;;;;;;2.67;2.47;;;14.20;99.90;;;;;;5119376;28;20467;-89
2021/05/18 11:05:01;;;;;;;3.27;2.97;;;14.80;99.90;;;;;;5117051;28;20482;-89
2021/05/18 11:07:33;;;;;;;3.30;2.60;;;14.50;99.90;;;;;;5117543;28;20470;-89
2021/05/18 11:09:59;;;;;;;3.20;2.90;;;14.50;99.90;;;;;;5117125;28;20785;-89
2021/05/18 11:12:27;;;;;;;3.93;3.13;;;14.50;99.90;;;;;;5116854;28;20463;-89
2021/05/18 11:15:05;;;;;;;5.10;3.50;;;14.30;99.90;;;;;;5117396;28;20482;-89
2021/05/18 11:17:32;;;;;;;3.37;2.30;;;14.20;99.90;;;;;;5119261;28;20423;-89
2021/05/18 11:20:07;;;;;;;3.30;3.00;;;14.30;99.90;;;;;;5129224;28;20447;-88
2021/05/18 11:23:22;;;;;;;2.70;2.50;;;14.40;99.90;;;;;;5116981;28;20474;-88
2021/05/18 11:25:52;;;;;;;3.90;3.23;;;14.20;99.90;;;;;;5115491;28;20508;-89
2021/05/18 11:28:22;;;;;;;6.20;3.40;;;14.30;99.90;;;;;;5116082;28;20423;-89
2021/05/18 11:30:51;;;;;;;3.00;2.63;;;14.40;99.90;;;;;;5115830;28;20530;-90
2021/05/18 11:33:20;;;;;;;3.27;3.07;;;14.50;99.90;;;;;;5115080;28;20463;-88
2021/05/18 11:36:00;;;;;;;3.90;2.77;;;14.50;99.90;;;;;;5109716;28;20446;-88
2021/05/18 11:38:28;;;;;;;5.40;3.37;;;14.40;99.90;;;;;;5102648;28;20420;-88
2021/05/18 11:40:54;;;;;;;3.70;3.13;;;;;;;;;;5103006;28;20447;-89
2021/05/18 11:43:23;;;;;;;2.97;2.53;;;14.20;99.90;;;;;;5101743;28;20890;-88
2021/05/18 11:45:51;;;;;;;3.60;3.30;;;14.20;99.90;;;;;;5102251;28;20531;-88
2021/05/18 11:48:19;;;;;;;6.00;3.23;;;14.50;99.90;;;;;;5108128;28;20459;-90
2021/05/18 11:50:46;;;;;;;4.70;3.57;;;14.20;99.90;;;;;;5106367;28;20494;-90
2021/05/18 11:53:30;;;;;;;4.30;3.33;;;14.50;99.90;;;;;;5103344;28;20525;-90
2021/05/18 11:55:56;;;;;;;4.50;3.60;;;14.50;99.90;;;;;;5107894;28;20991;-89
2021/05/18 11:58:23;;;;;;;4.97;2.97;;;15.10;99.90;;;;;;5113248;28;20515;-89
2021/05/18 12:00:50;;;;;;;14.27;8.00;;;;;;;;;;5104673;28;20562;-90
2021/05/18 12:03:17;;;;;;;7.87;4.47;;;14.70;99.90;;;;;;5102861;28;20456;-89
2021/05/18 12:05:51;;;;;;;4.10;3.73;;;14.70;99.90;;;;;;5103610;28;20462;-89
2021/05/18 12:08:25;;;;;;;4.40;3.90;;;14.60;99.90;;;;;;5100329;28;20832;-89
2021/05/18 12:10:51;;;;;;;5.37;4.77;;;14.60;99.90;;;;;;5102250;28;20804;-88
2021/05/18 12:13:29;;;;;;;6.17;4.73;;;14.80;99.90;;;;;;5106534;28;20467;-88
2021/05/18 12:16:04;;;;;;;9.93;5.50;;;14.90;99.90;;;;;;5106268;28;20443;-89
2021/05/18 12:18:32;;;;;;;8.47;4.73;;;14.70;99.90;;;;;;5104858;28;20448;-88
2021/05/18 12:21:06;;;;;;;7.40;5.60;;;14.20;99.90;;;;;;5105941;28;20440;-88
2021/05/18 12:23:34;;;;;;;5.77;4.83;;;14.50;99.90;;;;;;5111973;28;20464;-87
2021/05/18 12:26:19;;;;;;;5.30;4.60;;;15.00;99.90;;;;;;5103290;28;20930;-88
2021/05/18 12:28:59;;;;;;;4.63;4.03;;;14.90;99.90;;;;;;5104481;28;20443;-87
2021/05/18 12:31:31;;;;;;;5.70;5.10;;;14.60;99.90;;;;;;5105432;28;20482;-86
2021/05/18 12:33:58;;;;;;;7.90;4.90;;;;;;;;;;5109331;28;20440;-87
2021/05/18 12:36:25;;;;;;;5.40;4.80;;;14.50;99.90;;;;;;5105844;28;20869;-88
2021/05/18 12:39:11;;;;;;;5.20;3.63;;;14.80;99.90;;;;;;5108232;28;20501;-87
2021/05/18 12:41:56;;;;;;;5.80;3.37;;;14.90;99.90;;;;;;5107611;28;20444;-88
2021/05/18 12:44:25;;;;;;;3.33;3.03;;;14.90;99.90;;;;;;5104572;28;20463;-88
2021/05/18 12:47:00;;;;;;;3.37;2.90;;;14.50;99.90;;;;;;5106270;28;20495;-88
2021/05/18 12:49:32;;;;;;;4.40;2.70;;;14.40;99.90;;;;;;5119365;28;20488;-88
2021/05/18 12:52:14;;;;;;;5.00;2.70;;;14.70;99.90;;;;;;5117932;28;20446;-87
2021/05/18 12:54:49;;;;;;;3.03;2.73;;;14.60;99.90;;;;;;5118518;28;20419;-86
2021/05/18 12:57:18;;;;;;;4.10;3.03;;;14.80;99.90;;;;;;5113987;28;20847;-88
2021/05/18 12:59:59;;;;;;;4.23;2.97;;;14.90;99.90;;;;;;5104893;28;20505;-88
2021/05/18 13:02:30;;;;;;;4.87;3.10;;;14.60;99.90;;;;;;5103635;28;20478;-87
2021/05/18 13:05:04;;;;;;;4.57;3.67;;;14.60;99.90;;;;;;5104551;28;20478;-88
2021/05/18 13:07:30;;;;;;;3.20;2.90;;;14.70;99.90;;;;;;5114404;28;20427;-88
2021/05/18 13:10:06;;;;;;;5.83;3.10;;;14.90;99.90;;;;;;5117510;28;20450;-88
2021/05/18 13:12:32;;;;;;;3.80;3.30;;;;;;;;;;5117368;28;20463;-87
2021/05/18 13:15:20;;;;;;;4.50;3.07;;;14.80;99.90;;;;;;5118014;28;20443;-87
2021/05/18 13:17:53;;;;;;;4.03;2.93;;;;;;;;;;5118574;28;20415;-87
2021/05/18 13:20:19;;;;;;;4.20;2.90;;;;;;;;;;5118583;28;20451;-87
2021/05/18 13:22:51;;;;;;;3.90;2.40;;;;;;;;;;5118594;28;20455;-87
2021/05/18 13:28:04;;;;;;;3.70;2.70;;;14.60;99.90;;;;;;5118710;28;20434;-87
2021/05/18 13:30:33;;;;;;;4.03;3.63;;;14.50;99.90;;;;;;5117988;28;20488;-88
2021/05/18 13:33:00;;;;;;;3.60;2.57;;;;;;;;;;5119090;28;20448;-87
2021/05/18 13:35:29;;;;;;;2.70;2.50;;;14.70;99.90;;;;;;5119191;28;20426;-87
2021/05/18 13:37:56;;;;;;;3.40;3.10;;;;;;;;;;5118720;28;20402;-87
2021/05/18 13:40:24;;;;;;;6.13;3.57;;;;;;;;;;5118191;28;20495;-87
2021/05/18 13:42:52;;;;;;;4.83;2.80;;;;;;;;;;5118336;28;20444;-87
2021/05/18 13:45:20;;;;;;;3.10;2.50;;;14.40;99.90;;;;;;5116898;28;20507;-87
2021/05/18 13:47:50;;;;;;;2.90;2.53;;;15.00;99.90;;;;;;5116746;28;20440;-86
2021/05/18 13:50:16;;;;;;;3.83;2.77;;;14.80;99.90;;;;;;5116601;28;20467;-86
2021/05/18 13:52:42;;;;;;;5.53;3.00;;;15.00;99.90;;;;;;5114203;28;20546;-87
2021/05/18 13:55:09;;;;;;;4.17;3.30;;;;;;;;;;5115657;28;20446;-86
2021/05/18 13:57:36;;;;;;;4.07;2.40;;;15.30;99.90;;;;;;5116758;28;20459;-87
2021/05/18 14:00:07;;;;;;;3.10;2.13;;;15.40;99.90;;;;;;5115523;28;20443;-86
2021/05/18 14:02:34;;;;;;;3.20;2.03;;;;;;;;;;5104098;28;20563;-87
2021/05/18 14:05:02;;;;;;;3.07;2.50;;;15.40;99.90;;;;;;5115302;28;20479;-86
2021/05/18 14:08:18;;;;;;;4.23;2.57;;;15.40;99.90;;;;;;5108353;28;20454;-87
2021/05/18 14:10:44;;;;;;;8.60;2.57;;;15.90;99.90;;;;;;5061539;28;20444;-87
2021/05/18 14:13:10;;;;;;;2.53;2.33;;;16.00;99.90;;;;;;5117191;28;20454;-86
2021/05/18 14:15:37;;;;;;;6.23;3.30;;;16.40;99.90;;;;;;5117464;28;20448;-87
2021/05/18 14:18:03;;;;;;;2.40;2.20;;;15.90;99.90;;;;;;5115567;28;20451;-87
2021/05/18 14:20:30;;;;;;;4.10;3.43;;;16.20;99.90;;;;;;5117604;28;20455;-86
2021/05/18 14:22:56;;;;;;;4.77;3.13;;;16.60;99.90;;;;;;5116815;28;20448;-87
2021/05/18 14:25:23;;;;;;;4.33;2.17;;;16.60;99.90;;;;;;5116404;28;20479;-86
2021/05/18 14:27:49;;;;;;;3.87;2.80;;;16.50;99.90;;;;;;5111358;28;20440;-86
2021/05/18 14:30:16;;;;;;;3.63;2.30;;;16.30;99.90;;;;;;5108519;28;20501;-86
2021/05/18 14:32:43;;;;;;;2.70;2.10;;;16.40;99.90;;;;;;5110949;28;20480;-85
2021/05/18 14:35:11;;;;;;;5.60;4.30;;;16.40;99.90;;;;;;5110645;28;20440;-86
2021/05/18 14:37:40;;;;;;;4.43;2.90;;;16.20;99.90;;;;;;5112894;28;20440;-87
2021/05/18 14:40:11;;;;;;;7.20;3.03;;;16.20;99.90;;;;;;5109214;28;20443;-87
2021/05/18 14:42:51;;;;;;;3.37;2.43;;;16.00;99.90;;;;;;5111774;28;20471;-87
2021/05/18 14:45:21;;;;;;;4.20;2.70;;;15.60;99.90;;;;;;5102815;28;20473;-87
2021/05/18 14:47:53;;;;;;;2.63;2.43;;;15.40;99.90;;;;;;5103517;28;20794;-87
2021/05/18 14:55:49;;;;;;;4.43;2.47;;;;;;;;;;5101768;28;20455;-87
2021/05/18 14:58:16;;;;;;;2.87;2.17;;;15.90;99.90;;;;;;5102903;28;20448;-87
2021/05/18 15:00:42;;;;;;;2.40;2.17;;;16.00;99.90;;;;;;5102233;28;20447;-87
2021/05/18 15:03:12;;;;;;;3.47;2.00;;;16.40;99.90;;;;;;5105128;28;20520;-86
2021/05/18 15:05:40;;;;;;;1.70;1.60;;;16.00;99.90;;;;;;5103619;28;20483;-87
2021/05/18 15:08:08;;;;;;;3.60;2.50;;;16.30;99.90;;;;;;5101514;28;20477;-87
2021/05/18 15:10:36;;;;;;;2.50;2.30;;;16.00;99.90;;;;;;5101997;28;20521;-87
2021/05/18 15:13:17;;;;;;;2.40;2.20;;;15.70;99.90;;;;;;5105009;28;20491;-87
2021/05/18 15:16:08;;;;;;;3.80;2.50;;;;;;;;;;5106358;28;20784;-87
2021/05/18 15:18:53;;;;;;;3.57;2.40;;;;;;;;;;5105568;28;20518;-87
2021/05/18 15:24:33;;;;;;;2.67;2.30;;;;;;;;;;5116826;28;20574;-87
2021/05/18 15:27:03;;;;;;;2.70;2.20;;;;;;;;;;5119955;28;20451;-87
2021/05/18 15:32:18;;;;;;;2.83;2.53;;;;;;;;;;5112481;28;20548;-87
2021/05/18 15:40:58;;;;;;;4.23;2.77;;;;;;;;;;5105578;28;20493;-87
2021/05/18 15:43:59;;;;;;;5.93;3.57;;;;;;;;;;5120034;28;20505;-87
2021/05/18 15:49:24;;;;;;;3.60;2.83;;;;;;;;;;5117262;28;20499;-86
2021/05/18 15:52:00;;;;;;;5.07;2.77;;;;;;;;;;5119257;28;20447;-87
2021/05/18 15:54:48;;;;;;;2.40;2.00;;;;;;;;;;5118032;28;20555;-87
2021/05/18 15:57:26;;;;;;;5.53;3.07;;;;;;;;;;5116984;28;20801;-87
2021/05/18 15:59:54;;;;;;;4.80;3.10;;;;;;;;;;5118310;28;20447;-87
2021/05/18 16:02:31;;;;;;;3.60;2.90;;;;;;;;;;5117683;28;20428;-87
2021/05/18 16:05:01;;;;;;;2.83;2.50;;;;;;;;;;5118347;28;20272;-87
2021/05/18 16:07:33;;;;;;;3.80;3.40;;;;;;;;;;5119025;28;20456;-86
2021/05/18 16:10:23;;;;;;;8.90;2.90;;;;;;;;;;5119427;28;20523;-87
2021/05/18 16:12:54;;;;;;;4.43;2.57;;;;;;;;;;5114761;28;20507;-86
2021/05/18 16:15:23;;;;;;;5.30;2.67;;;;;;;;;;5110376;28;20447;-87
2021/05/18 16:17:51;;;;;;;2.20;1.83;;;;;;;;;;5112852;28;20452;-87
2021/05/18 16:20:18;;;;;;;5.10;2.33;;;;;;;;;;5111708;28;20436;-87
2021/05/18 16:22:45;;;;;;;2.40;2.20;;;;;;;;;;5109216;28;20521;-87
2021/05/18 16:25:24;;;;;;;6.10;2.43;;;;;;;;;;5108893;28;20479;-87
2021/05/18 16:27:52;;;;;;;2.73;2.53;;;;;;;;;;5112049;28;20459;-87
2021/05/18 16:30:20;;;;;;;3.37;3.07;;;;;;;;;;5109273;28;20455;-87
2021/05/18 16:32:47;;;;;;;4.17;3.13;;;;;;;;;;5111892;28;20456;-87
2021/05/18 16:35:16;;;;;;;3.23;2.57;;;;;;;;;;5115257;28;20436;-88
2021/05/18 16:37:45;;;;;;;3.67;3.37;;;15.10;99.90;;;;;;5096361;22;20512;-84
2021/05/18 16:40:17;;;;;;;5.40;3.20;;;;;;;;;;5064039;28;20509;-84
2021/05/18 16:42:43;;;;;;;6.23;3.03;;;;;;;;;;5063888;28;20469;-84
2021/05/18 16:45:11;;;;;;;4.90;2.83;;;15.00;99.90;;;;;;5063758;28;20496;-84
2021/05/18 16:47:37;;;;;;;2.97;2.77;;;15.40;99.90;;;;;;5077325;28;20468;-85
2021/05/18 16:50:07;;;;;;;3.80;2.73;;;14.20;99.90;;;;;;5083908;28;20452;-83
2021/05/18 16:52:33;;;;;;;3.23;2.57;;;14.60;99.90;;;;;;5082310;28;20888;-83
2021/05/18 16:54:59;;;;;;;3.40;2.43;;;;;;;;;;5083324;28;20856;-82
2021/05/18 16:57:26;;;;;;;2.67;1.90;;;14.50;99.90;;;;;;5082522;28;20475;-83
2021/05/18 16:59:52;;;;;;;8.10;2.20;;;14.60;99.90;;;;;;5083842;28;20548;-83
2021/05/18 17:02:21;;;;;;;3.33;2.30;;;14.80;99.90;;;;;;5083881;28;20463;-84
2021/05/18 17:04:48;;;;;;;2.93;1.80;;;;;;;;;;5082736;28;20480;-84
2021/05/18 17:07:14;;;;;;;2.03;1.90;;;14.70;99.90;;;;;;5083496;28;20476;-84
2021/05/18 17:09:41;;;;;;;3.15;1.80;;;;;;;;;;5083201;28;20486;-84
2021/05/18 17:12:08;;;;;;;4.45;2.10;;;15.00;99.90;;;;;;5084876;28;20434;-84
2021/05/18 17:14:34;;;;;;;2.90;2.60;;;;;;;;;;5084813;28;20596;-82
2021/05/18 17:17:01;;;;;;;4.80;3.17;;;14.40;99.90;;;;;;5083779;28;21040;-84
2021/05/18 17:19:28;;;;;;;4.25;2.65;;;14.90;99.90;;;;;;5087370;28;20461;-84
2021/05/18 17:21:54;;;;;;;3.00;2.13;;;15.00;99.90;;;;;;5088216;28;20439;-83
2021/05/18 17:24:21;;;;;;;3.70;2.63;;;;;;;;;;5088996;28;20214;-84
2021/05/18 17:26:47;;;;;;;3.30;2.40;;;;;;;;;;5088609;28;20476;-85
2021/05/18 17:29:15;;;;;;;7.30;4.10;;;14.80;99.90;;;;;;5089296;28;20451;-85
2021/05/18 17:31:43;;;;;;;3.33;2.53;;;14.90;99.90;;;;;;5088707;28;20445;-84
2021/05/18 17:34:09;;;;;;;4.03;2.37;;;13.50;99.90;;;;;;5087487;28;20474;-84
2021/05/18 17:36:38;;;;;;;4.37;2.30;;;14.60;99.90;;;;;;5089076;28;20525;-85
2021/05/18 17:39:06;;;;;;;3.90;3.10;;;14.70;99.90;;;;;;5090200;28;20539;-84
2021/05/18 17:41:34;;;;;;;3.43;3.00;;;14.50;99.90;;;;;;5090374;28;20470;-83